createdAt,value
2018-06-10T00:00:41.355Z,1008.35
2018-06-10T00:01:51.037Z,1008.31
2018-06-10T00:03:00.954Z,1008.34
2018-06-10T00:04:10.104Z,1008.35
2018-06-10T00:05:19.287Z,1008.38
2018-06-10T00:06:28.980Z,1008.38
2018-06-10T00:07:38.970Z,1008.4
2018-06-10T00:08:48.393Z,1008.41
2018-06-10T00:09:57.573Z,1008.4
2018-06-10T00:11:06.739Z,1008.4
2018-06-10T00:12:15.686Z,1008.4
2018-06-10T00:13:25.118Z,1008.33
2018-06-10T00:14:34.827Z,1008.28
2018-06-10T00:15:43.989Z,1008.25
2018-06-10T00:16:53.523Z,1008.21
2018-06-10T00:18:02.700Z,1008.16
2018-06-10T00:19:12.148Z,1008.17
2018-06-10T00:20:21.039Z,1008.15
2018-06-10T00:21:30.209Z,1008.15
2018-06-10T00:22:39.368Z,1008.13
2018-06-10T00:23:49.057Z,1008.13
2018-06-10T00:24:58.488Z,1008.11
2018-06-10T00:26:07.436Z,1008.06
2018-06-10T00:27:17.152Z,1007.99
2018-06-10T00:28:26.882Z,1007.98
2018-06-10T00:29:36.575Z,1007.93
2018-06-10T00:30:46.049Z,1007.86
2018-06-10T00:31:55.300Z,1007.81
2018-06-10T00:33:04.484Z,1007.76
2018-06-10T00:34:14.160Z,1007.81
2018-06-10T00:35:23.597Z,1007.78
2018-06-10T00:36:32.759Z,1007.79
2018-06-10T00:37:41.435Z,1007.71
2018-06-10T00:38:51.359Z,1007.68
2018-06-10T00:40:00.788Z,1007.69
2018-06-10T00:41:09.461Z,1007.65
2018-06-10T00:42:18.888Z,1007.64
2018-06-10T00:43:28.855Z,1007.58
2018-06-10T00:44:38.517Z,1007.63
2018-06-10T00:45:48.191Z,1007.63
2018-06-10T00:46:57.869Z,1007.61
2018-06-10T00:48:07.044Z,1007.59
2018-06-10T00:49:16.783Z,1007.62
2018-06-10T00:50:26.208Z,1007.58
2018-06-10T00:51:35.121Z,1007.58
2018-06-10T00:52:44.816Z,1007.61
2018-06-10T00:53:53.986Z,1007.58
2018-06-10T00:55:03.421Z,1007.61
2018-06-10T00:56:12.843Z,1007.58
2018-06-10T00:57:22.025Z,1007.6
2018-06-10T00:58:32.026Z,1007.6
2018-06-10T00:59:41.401Z,1007.58
2018-06-10T01:00:50.944Z,1007.61
2018-06-10T01:02:00.133Z,1007.61
2018-06-10T01:03:09.594Z,1007.56
2018-06-10T01:04:18.776Z,1007.57
2018-06-10T01:05:27.696Z,1007.57
2018-06-10T01:06:37.386Z,1007.54
2018-06-10T01:07:46.814Z,1007.55
2018-06-10T01:08:56.361Z,1007.56
2018-06-10T01:10:06.658Z,1007.64
2018-06-10T01:11:16.337Z,1007.58
2018-06-10T01:12:25.762Z,1007.58
2018-06-10T01:13:35.175Z,1007.59
2018-06-10T01:14:45.098Z,1007.56
2018-06-10T01:15:54.284Z,1007.47
2018-06-10T01:17:03.459Z,1007.52
2018-06-10T01:18:13.435Z,1007.48
2018-06-10T01:19:22.862Z,1007.48
2018-06-10T01:20:32.544Z,1007.49
2018-06-10T01:21:42.003Z,1007.49
2018-06-10T01:22:51.684Z,1007.47
2018-06-10T01:24:00.856Z,1007.46
2018-06-10T01:25:10.538Z,1007.49
2018-06-10T01:26:20.216Z,1007.45
2018-06-10T01:27:29.637Z,1007.38
2018-06-10T01:28:39.053Z,1007.35
2018-06-10T01:29:48.471Z,1007.35
2018-06-10T01:30:57.896Z,1007.34
2018-06-10T01:32:06.804Z,1007.37
2018-06-10T01:33:15.959Z,1007.3
2018-06-10T01:34:25.641Z,1007.32
2018-06-10T01:35:35.324Z,1007.27
2018-06-10T01:36:45.256Z,1007.29
2018-06-10T01:37:54.405Z,1007.28
2018-06-10T01:39:03.322Z,1007.3
2018-06-10T01:40:12.739Z,1007.28
2018-06-10T01:41:22.674Z,1007.2
2018-06-10T01:42:31.605Z,1007.14
2018-06-10T01:43:40.554Z,1007.08
2018-06-10T01:44:49.723Z,1007.04
2018-06-10T01:45:58.884Z,1007.07
2018-06-10T01:47:08.050Z,1007.02
2018-06-10T01:48:17.476Z,1006.99
2018-06-10T01:49:27.144Z,1006.96
2018-06-10T01:50:36.399Z,1006.93
2018-06-10T01:51:46.067Z,1006.92
2018-06-10T01:52:55.504Z,1006.89
2018-06-10T01:54:04.932Z,1006.86
2018-06-10T01:55:14.353Z,1006.84
2018-06-10T01:56:23.780Z,1006.83
2018-06-10T01:57:33.191Z,1006.82
2018-06-10T01:58:42.607Z,1006.81
2018-06-10T01:59:52.039Z,1006.79
2018-06-10T02:01:01.719Z,1006.79
2018-06-10T02:02:11.386Z,1006.75
2018-06-10T02:03:20.794Z,1006.77
2018-06-10T02:04:29.961Z,1006.79
2018-06-10T02:05:39.162Z,1006.8
2018-06-10T02:06:48.334Z,1006.74
2018-06-10T02:07:57.994Z,1006.72
2018-06-10T02:09:07.411Z,1006.69
2018-06-10T02:10:16.587Z,1006.68
2018-06-10T02:11:26.564Z,1006.68
2018-06-10T02:12:36.247Z,1006.64
2018-06-10T02:13:45.676Z,1006.69
2018-06-10T02:14:55.091Z,1006.68
2018-06-10T02:16:04.776Z,1006.64
2018-06-10T02:17:14.194Z,1006.64
2018-06-10T02:18:23.466Z,1006.61
2018-06-10T02:19:32.642Z,1006.6
2018-06-10T02:20:42.584Z,1006.63
2018-06-10T02:21:52.251Z,1006.61
2018-06-10T02:23:01.663Z,1006.64
2018-06-10T02:24:10.587Z,1006.62
2018-06-10T02:25:20.268Z,1006.6
2018-06-10T02:26:29.697Z,1006.62
2018-06-10T02:27:39.406Z,1006.6
2018-06-10T02:28:48.817Z,1006.53
2018-06-10T02:29:58.518Z,1006.49
2018-06-10T02:31:07.954Z,1006.52
2018-06-10T02:32:16.840Z,1006.47
2018-06-10T02:33:26.513Z,1006.51
2018-06-10T02:34:35.932Z,1006.53
2018-06-10T02:35:45.422Z,1006.57
2018-06-10T02:36:55.096Z,1006.56
2018-06-10T02:38:04.564Z,1006.58
2018-06-10T02:39:14.228Z,1006.57
2018-06-10T02:40:23.933Z,1006.57
2018-06-10T02:41:33.116Z,1006.58
2018-06-10T02:42:42.791Z,1006.58
2018-06-10T02:43:52.759Z,1006.61
2018-06-10T02:45:01.953Z,1006.63
2018-06-10T02:46:11.146Z,1006.64
2018-06-10T02:47:20.059Z,1006.66
2018-06-10T02:48:29.769Z,1006.62
2018-06-10T02:49:39.459Z,1006.66
2018-06-10T02:50:48.863Z,1006.66
2018-06-10T02:51:58.287Z,1006.66
2018-06-10T02:53:07.966Z,1006.66
2018-06-10T02:54:17.653Z,1006.66
2018-06-10T02:55:27.107Z,1006.66
2018-06-10T02:56:36.542Z,1006.64
2018-06-10T02:57:46.232Z,1006.63
2018-06-10T02:58:55.930Z,1006.64
2018-06-10T03:00:05.620Z,1006.68
2018-06-10T03:01:14.785Z,1006.67
2018-06-10T03:02:24.739Z,1006.72
2018-06-10T03:03:33.666Z,1006.75
2018-06-10T03:04:43.069Z,1006.75
2018-06-10T03:05:51.982Z,1006.73
2018-06-10T03:07:01.135Z,1006.75
2018-06-10T03:08:10.812Z,1006.77
2018-06-10T03:09:20.248Z,1006.72
2018-06-10T03:10:29.683Z,1006.76
2018-06-10T03:11:39.356Z,1006.74
2018-06-10T03:12:48.792Z,1006.71
2018-06-10T03:13:58.221Z,1006.75
2018-06-10T03:15:07.913Z,1006.74
2018-06-10T03:16:17.357Z,1006.68
2018-06-10T03:17:27.310Z,1006.66
2018-06-10T03:18:36.975Z,1006.7
2018-06-10T03:19:46.416Z,1006.69
2018-06-10T03:20:56.083Z,1006.7
2018-06-10T03:22:05.521Z,1006.74
2018-06-10T03:23:15.201Z,1006.73
2018-06-10T03:24:24.874Z,1006.68
2018-06-10T03:25:34.561Z,1006.65
2018-06-10T03:26:44.226Z,1006.67
2018-06-10T03:27:53.664Z,1006.62
2018-06-10T03:29:03.096Z,1006.64
2018-06-10T03:30:12.780Z,1006.67
2018-06-10T03:31:22.454Z,1006.63
2018-06-10T03:32:32.143Z,1006.66
2018-06-10T03:33:41.571Z,1006.67
2018-06-10T03:34:50.999Z,1006.68
2018-06-10T03:36:00.419Z,1006.71
2018-06-10T03:37:10.093Z,1006.71
2018-06-10T03:38:18.991Z,1006.73
2018-06-10T03:39:27.908Z,1006.72
2018-06-10T03:40:37.320Z,1006.73
2018-06-10T03:41:46.759Z,1006.74
2018-06-10T03:42:55.928Z,1006.72
2018-06-10T03:44:05.096Z,1006.75
2018-06-10T03:45:14.249Z,1006.76
2018-06-10T03:46:23.675Z,1006.83
2018-06-10T03:47:33.087Z,1006.84
2018-06-10T03:48:42.530Z,1006.86
2018-06-10T03:49:51.951Z,1006.84
2018-06-10T03:51:01.674Z,1006.86
2018-06-10T03:52:11.401Z,1006.89
2018-06-10T03:53:20.574Z,1006.86
2018-06-10T03:54:30.245Z,1006.83
2018-06-10T03:55:39.657Z,1006.86
2018-06-10T03:56:48.831Z,1006.81
2018-06-10T03:57:58.264Z,1006.78
2018-06-10T03:59:07.938Z,1006.82
2018-06-10T04:00:17.872Z,1006.76
2018-06-10T04:01:27.282Z,1006.79
2018-06-10T04:02:36.703Z,1006.79
2018-06-10T04:03:46.385Z,1006.81
2018-06-10T04:04:55.289Z,1006.77
2018-06-10T04:06:04.465Z,1006.84
2018-06-10T04:07:13.881Z,1006.82
2018-06-10T04:08:23.311Z,1006.84
2018-06-10T04:09:32.731Z,1006.86
2018-06-10T04:10:42.663Z,1006.87
2018-06-10T04:11:51.841Z,1006.86
2018-06-10T04:13:01.784Z,1006.86
2018-06-10T04:14:10.696Z,1006.86
2018-06-10T04:15:19.602Z,1006.89
2018-06-10T04:16:29.032Z,1006.85
2018-06-10T04:17:38.709Z,1006.88
2018-06-10T04:18:47.625Z,1006.87
2018-06-10T04:19:56.795Z,1006.91
2018-06-10T04:21:06.297Z,1006.85
2018-06-10T04:22:15.459Z,1006.89
2018-06-10T04:23:24.886Z,1006.87
2018-06-10T04:24:34.313Z,1006.9
2018-06-10T04:25:44.029Z,1006.9
2018-06-10T04:26:53.468Z,1006.92
2018-06-10T04:28:02.887Z,1006.99
2018-06-10T04:29:12.337Z,1006.99
2018-06-10T04:30:22.011Z,1007.01
2018-06-10T04:31:31.437Z,1006.96
2018-06-10T04:32:40.598Z,1006.94
2018-06-10T04:33:49.765Z,1006.94
2018-06-10T04:34:58.938Z,1006.98
2018-06-10T04:36:08.094Z,1007.02
2018-06-10T04:37:17.752Z,1007.03
2018-06-10T04:38:27.166Z,1007.04
2018-06-10T04:39:36.584Z,1007.09
2018-06-10T04:40:46.288Z,1007.14
2018-06-10T04:41:55.246Z,1007.11
2018-06-10T04:43:04.669Z,1007.15
2018-06-10T04:44:14.107Z,1007.14
2018-06-10T04:45:23.784Z,1007.11
2018-06-10T04:46:32.958Z,1007.14
2018-06-10T04:47:42.116Z,1007.15
2018-06-10T04:48:51.560Z,1007.18
2018-06-10T04:50:01.279Z,1007.19
2018-06-10T04:51:10.460Z,1007.17
2018-06-10T04:52:19.650Z,1007.2
2018-06-10T04:53:28.831Z,1007.19
2018-06-10T04:54:38.263Z,1007.17
2018-06-10T04:55:47.688Z,1007.17
2018-06-10T04:56:56.599Z,1007.19
2018-06-10T04:58:05.769Z,1007.17
2018-06-10T04:59:14.934Z,1007.16
2018-06-10T05:00:24.863Z,1007.16
2018-06-10T05:01:34.287Z,1007.15
2018-06-10T05:02:43.700Z,1007.17
2018-06-10T05:03:53.393Z,1007.16
2018-06-10T05:05:03.061Z,1007.16
2018-06-10T05:06:12.538Z,1007.17
2018-06-10T05:07:21.730Z,1007.18
2018-06-10T05:08:31.555Z,1007.2
2018-06-10T05:09:40.966Z,1007.23
2018-06-10T05:10:49.862Z,1007.25
2018-06-10T05:11:59.292Z,1007.25
2018-06-10T05:13:08.198Z,1007.28
2018-06-10T05:14:17.616Z,1007.26
2018-06-10T05:15:27.070Z,1007.25
2018-06-10T05:16:35.965Z,1007.29
2018-06-10T05:17:45.115Z,1007.29
2018-06-10T05:18:54.265Z,1007.32
2018-06-10T05:20:03.589Z,1007.33
2018-06-10T05:21:13.639Z,1007.36
2018-06-10T05:22:23.313Z,1007.35
2018-06-10T05:23:33.238Z,1007.3
2018-06-10T05:24:42.140Z,1007.26
2018-06-10T05:25:52.517Z,1007.29
2018-06-10T05:27:02.202Z,1007.32
2018-06-10T05:28:11.889Z,1007.33
2018-06-10T05:29:20.805Z,1007.34
2018-06-10T05:30:30.228Z,1007.4
2018-06-10T05:31:39.917Z,1007.4
2018-06-10T05:32:49.082Z,1007.36
2018-06-10T05:33:58.810Z,1007.4
2018-06-10T05:35:08.232Z,1007.38
2018-06-10T05:36:17.151Z,1007.34
2018-06-10T05:37:26.564Z,1007.37
2018-06-10T05:38:35.990Z,1007.38
2018-06-10T05:39:45.164Z,1007.43
2018-06-10T05:40:54.594Z,1007.41
2018-06-10T05:42:03.821Z,1007.42
2018-06-10T05:43:12.977Z,1007.45
2018-06-10T05:44:22.402Z,1007.41
2018-06-10T05:45:32.105Z,1007.43
2018-06-10T05:46:41.529Z,1007.41
2018-06-10T05:47:51.235Z,1007.45
2018-06-10T05:49:00.407Z,1007.42
2018-06-10T05:50:09.568Z,1007.45
2018-06-10T05:51:19.293Z,1007.42
2018-06-10T05:52:28.828Z,1007.48
2018-06-10T05:53:38.012Z,1007.47
2018-06-10T05:54:47.471Z,1007.45
2018-06-10T05:55:56.921Z,1007.47
2018-06-10T05:57:06.352Z,1007.5
2018-06-10T05:58:15.325Z,1007.51
2018-06-10T05:59:24.746Z,1007.49
2018-06-10T06:00:34.180Z,1007.49
2018-06-10T06:01:43.087Z,1007.5
2018-06-10T06:02:52.770Z,1007.54
2018-06-10T06:04:02.178Z,1007.56
2018-06-10T06:05:12.558Z,1007.6
2018-06-10T06:06:21.725Z,1007.62
2018-06-10T06:07:31.147Z,1007.64
2018-06-10T06:08:40.585Z,1007.71
2018-06-10T06:09:50.289Z,1007.7
2018-06-10T06:10:59.705Z,1007.72
2018-06-10T06:12:08.879Z,1007.68
2018-06-10T06:13:18.565Z,1007.67
2018-06-10T06:14:28.817Z,1007.65
2018-06-10T06:15:38.243Z,1007.65
2018-06-10T06:16:47.663Z,1007.69
2018-06-10T06:17:56.819Z,1007.73
2018-06-10T06:19:06.254Z,1007.74
2018-06-10T06:20:15.462Z,1007.72
2018-06-10T06:21:25.150Z,1007.76
2018-06-10T06:22:34.326Z,1007.75
2018-06-10T06:23:43.983Z,1007.78
2018-06-10T06:24:53.662Z,1007.79
2018-06-10T06:26:03.083Z,1007.77
2018-06-10T06:27:12.507Z,1007.77
2018-06-10T06:28:22.033Z,1007.78
2018-06-10T06:29:30.931Z,1007.81
2018-06-10T06:30:40.368Z,1007.76
2018-06-10T06:31:49.779Z,1007.76
2018-06-10T06:32:59.736Z,1007.75
2018-06-10T06:34:09.422Z,1007.75
2018-06-10T06:35:19.088Z,1007.77
2018-06-10T06:36:28.313Z,1007.77
2018-06-10T06:37:37.747Z,1007.77
2018-06-10T06:38:46.918Z,1007.75
2018-06-10T06:39:56.596Z,1007.73
2018-06-10T06:41:06.015Z,1007.75
2018-06-10T06:42:15.431Z,1007.76
2018-06-10T06:43:24.873Z,1007.73
2018-06-10T06:44:34.540Z,1007.76
2018-06-10T06:45:43.949Z,1007.74
2018-06-10T06:46:53.117Z,1007.76
2018-06-10T06:48:02.854Z,1007.74
2018-06-10T06:49:12.015Z,1007.76
2018-06-10T06:50:21.732Z,1007.75
2018-06-10T06:51:31.422Z,1007.72
2018-06-10T06:52:40.689Z,1007.69
2018-06-10T06:53:49.250Z,1007.68
2018-06-10T06:54:58.439Z,1007.64
2018-06-10T06:56:08.123Z,1007.63
2018-06-10T06:57:17.806Z,1007.63
2018-06-10T06:58:27.019Z,1007.68
2018-06-10T06:59:36.187Z,1007.62
2018-06-10T07:00:45.867Z,1007.61
2018-06-10T07:01:55.575Z,1007.65
2018-06-10T07:03:05.247Z,1007.61
2018-06-10T07:04:14.666Z,1007.64
2018-06-10T07:05:24.249Z,1007.62
2018-06-10T07:06:34.218Z,1007.62
2018-06-10T07:07:43.981Z,1007.62
2018-06-10T07:08:53.130Z,1007.63
2018-06-10T07:10:02.825Z,1007.61
2018-06-10T07:11:12.501Z,1007.64
2018-06-10T07:12:21.411Z,1007.64
2018-06-10T07:13:31.094Z,1007.59
2018-06-10T07:14:39.796Z,1007.57
2018-06-10T07:15:49.471Z,1007.56
2018-06-10T07:16:58.391Z,1007.57
2018-06-10T07:18:07.812Z,1007.54
2018-06-10T07:19:16.964Z,1007.52
2018-06-10T07:20:26.135Z,1007.54
2018-06-10T07:21:36.084Z,1007.54
2018-06-10T07:22:46.036Z,1007.54
2018-06-10T07:23:55.206Z,1007.51
2018-06-10T07:25:04.639Z,1007.53
2018-06-10T07:26:14.301Z,1007.52
2018-06-10T07:27:23.477Z,1007.49
2018-06-10T07:28:33.154Z,1007.49
2018-06-10T07:29:42.372Z,1007.52
2018-06-10T07:30:51.790Z,1007.47
2018-06-10T07:32:01.231Z,1007.48
2018-06-10T07:33:11.211Z,1007.51
2018-06-10T07:34:20.909Z,1007.53
2018-06-10T07:35:30.866Z,1007.53
2018-06-10T07:36:40.037Z,1007.51
2018-06-10T07:37:49.980Z,1007.55
2018-06-10T07:38:59.919Z,1007.57
2018-06-10T07:40:09.605Z,1007.59
2018-06-10T07:41:18.761Z,1007.63
2018-06-10T07:42:28.438Z,1007.66
2018-06-10T07:43:38.104Z,1007.66
2018-06-10T07:44:47.787Z,1007.73
2018-06-10T07:45:57.723Z,1007.7
2018-06-10T07:47:07.637Z,1007.68
2018-06-10T07:48:17.602Z,1007.72
2018-06-10T07:49:27.924Z,1007.68
2018-06-10T07:50:37.603Z,1007.69
2018-06-10T07:51:47.119Z,1007.69
2018-06-10T07:52:56.556Z,1007.69
2018-06-10T07:54:05.995Z,1007.68
2018-06-10T07:55:16.147Z,1007.69
2018-06-10T07:56:25.308Z,1007.67
2018-06-10T07:57:34.991Z,1007.68
2018-06-10T07:58:44.676Z,1007.7
2018-06-10T07:59:53.854Z,1007.7
2018-06-10T08:01:03.632Z,1007.7
2018-06-10T08:02:13.067Z,1007.7
2018-06-10T08:03:21.992Z,1007.7
2018-06-10T08:04:30.921Z,1007.67
2018-06-10T08:05:40.340Z,1007.67
2018-06-10T08:06:50.024Z,1007.64
2018-06-10T08:07:58.951Z,1007.65
2018-06-10T08:09:08.916Z,1007.63
2018-06-10T08:10:17.852Z,1007.64
2018-06-10T08:11:27.276Z,1007.65
2018-06-10T08:12:37.209Z,1007.68
2018-06-10T08:13:46.407Z,1007.65
2018-06-10T08:14:55.594Z,1007.67
2018-06-10T08:16:04.601Z,1007.67
2018-06-10T08:17:14.042Z,1007.66
2018-06-10T08:18:23.474Z,1007.66
2018-06-10T08:19:32.908Z,1007.65
2018-06-10T08:20:42.577Z,1007.68
2018-06-10T08:21:51.758Z,1007.69
2018-06-10T08:23:01.427Z,1007.7
2018-06-10T08:24:11.364Z,1007.71
2018-06-10T08:25:21.050Z,1007.72
2018-06-10T08:26:31.006Z,1007.7
2018-06-10T08:27:40.264Z,1007.74
2018-06-10T08:28:49.940Z,1007.74
2018-06-10T08:29:59.898Z,1007.75
2018-06-10T08:31:09.056Z,1007.72
2018-06-10T08:32:18.795Z,1007.71
2018-06-10T08:33:28.208Z,1007.69
2018-06-10T08:34:37.877Z,1007.67
2018-06-10T08:35:47.285Z,1007.69
2018-06-10T08:36:56.707Z,1007.71
2018-06-10T08:38:06.652Z,1007.72
2018-06-10T08:39:16.078Z,1007.7
2018-06-10T08:40:26.014Z,1007.74
2018-06-10T08:41:35.689Z,1007.74
2018-06-10T08:42:45.102Z,1007.72
2018-06-10T08:43:54.286Z,1007.7
2018-06-10T08:45:04.593Z,1007.78
2018-06-10T08:46:13.754Z,1007.73
2018-06-10T08:47:23.436Z,1007.74
2018-06-10T08:48:33.099Z,1007.77
2018-06-10T08:49:42.270Z,1007.73
2018-06-10T08:50:51.998Z,1007.76
2018-06-10T08:52:01.957Z,1007.77
2018-06-10T08:53:11.425Z,1007.77
2018-06-10T08:54:20.843Z,1007.75
2018-06-10T08:55:30.269Z,1007.75
2018-06-10T08:56:39.706Z,1007.74
2018-06-10T08:57:49.378Z,1007.75
2018-06-10T08:58:58.554Z,1007.75
2018-06-10T09:00:08.504Z,1007.75
2018-06-10T09:01:17.928Z,1007.73
2018-06-10T09:02:27.103Z,1007.72
2018-06-10T09:03:36.913Z,1007.72
2018-06-10T09:04:46.352Z,1007.72
2018-06-10T09:05:55.523Z,1007.75
2018-06-10T09:07:05.208Z,1007.74
2018-06-10T09:08:14.523Z,1007.71
2018-06-10T09:09:23.965Z,1007.71
2018-06-10T09:10:32.877Z,1007.75
2018-06-10T09:11:42.333Z,1007.72
2018-06-10T09:12:51.281Z,1007.75
2018-06-10T09:14:01.059Z,1007.78
2018-06-10T09:15:11.025Z,1007.76
2018-06-10T09:16:21.966Z,1007.78
2018-06-10T09:17:31.886Z,1007.83
2018-06-10T09:18:41.036Z,1007.81
2018-06-10T09:19:50.194Z,1007.82
2018-06-10T09:20:59.633Z,1007.8
2018-06-10T09:22:09.044Z,1007.79
2018-06-10T09:23:18.886Z,1007.82
2018-06-10T09:24:28.298Z,1007.79
2018-06-10T09:25:37.728Z,1007.79
2018-06-10T09:26:46.948Z,1007.76
2018-06-10T09:27:56.115Z,1007.78
2018-06-10T09:29:05.283Z,1007.78
2018-06-10T09:30:14.464Z,1007.76
2018-06-10T09:31:23.689Z,1007.78
2018-06-10T09:32:33.456Z,1007.77
2018-06-10T09:33:42.379Z,1007.78
2018-06-10T09:34:51.077Z,1007.77
2018-06-10T09:36:00.499Z,1007.8
2018-06-10T09:37:09.710Z,1007.79
2018-06-10T09:38:19.253Z,1007.76
2018-06-10T09:39:29.700Z,1007.76
2018-06-10T09:40:38.861Z,1007.77
2018-06-10T09:41:48.277Z,1007.72
2018-06-10T09:42:59.192Z,1007.73
2018-06-10T09:44:08.481Z,1007.72
2018-06-10T09:45:18.031Z,1007.75
2018-06-10T09:46:28.502Z,1007.74
2018-06-10T09:47:37.782Z,1007.74
2018-06-10T09:48:46.858Z,1007.78
2018-06-10T09:49:55.794Z,1007.78
2018-06-10T09:51:05.025Z,1007.8
2018-06-10T09:52:15.003Z,1007.82
2018-06-10T09:53:24.433Z,1007.81
2018-06-10T09:54:33.671Z,1007.82
2018-06-10T09:55:44.312Z,1007.81
2018-06-10T09:56:54.212Z,1007.82
2018-06-10T09:58:03.480Z,1007.87
2018-06-10T09:59:13.164Z,1007.87
2018-06-10T10:00:22.894Z,1007.87
2018-06-10T10:01:32.356Z,1007.88
2018-06-10T10:02:42.299Z,1007.88
2018-06-10T10:03:53.067Z,1007.85
2018-06-10T10:05:03.402Z,1007.88
2018-06-10T10:06:13.147Z,1007.83
2018-06-10T10:07:22.982Z,1007.83
2018-06-10T10:08:32.697Z,1007.8
2018-06-10T10:09:42.387Z,1007.82
2018-06-10T10:10:51.366Z,1007.76
2018-06-10T10:12:00.796Z,1007.79
2018-06-10T10:13:10.243Z,1007.8
2018-06-10T10:14:20.418Z,1007.77
2018-06-10T10:15:29.641Z,1007.75
2018-06-10T10:16:39.090Z,1007.75
2018-06-10T10:17:48.499Z,1007.71
2018-06-10T10:18:57.942Z,1007.72
2018-06-10T10:20:08.008Z,1007.71
2018-06-10T10:21:17.690Z,1007.72
2018-06-10T10:22:26.860Z,1007.71
2018-06-10T10:23:36.565Z,1007.72
2018-06-10T10:24:46.286Z,1007.71
2018-06-10T10:25:56.171Z,1007.64
2018-06-10T10:27:06.094Z,1007.67
2018-06-10T10:28:15.272Z,1007.66
2018-06-10T10:29:24.982Z,1007.68
2018-06-10T10:30:34.402Z,1007.7
2018-06-10T10:31:43.816Z,1007.68
2018-06-10T10:32:53.603Z,1007.67
2018-06-10T10:34:02.751Z,1007.67
2018-06-10T10:35:11.911Z,1007.66
2018-06-10T10:36:21.366Z,1007.68
2018-06-10T10:37:31.036Z,1007.67
2018-06-10T10:38:40.449Z,1007.65
2018-06-10T10:39:49.636Z,1007.71
2018-06-10T10:40:59.433Z,1007.69
2018-06-10T10:42:09.105Z,1007.69
2018-06-10T10:43:17.990Z,1007.73
2018-06-10T10:44:26.919Z,1007.73
2018-06-10T10:45:36.593Z,1007.75
2018-06-10T10:46:46.018Z,1007.72
2018-06-10T10:47:54.917Z,1007.69
2018-06-10T10:49:03.813Z,1007.69
2018-06-10T10:50:12.728Z,1007.7
2018-06-10T10:51:22.139Z,1007.69
2018-06-10T10:52:31.818Z,1007.66
2018-06-10T10:53:40.992Z,1007.69
2018-06-10T10:54:50.451Z,1007.71
2018-06-10T10:55:59.889Z,1007.66
2018-06-10T10:57:10.206Z,1007.7
2018-06-10T10:58:19.619Z,1007.67
2018-06-10T10:59:29.046Z,1007.63
2018-06-10T11:00:38.195Z,1007.61
2018-06-10T11:01:47.680Z,1007.63
2018-06-10T11:02:56.581Z,1007.64
2018-06-10T11:04:06.522Z,1007.59
2018-06-10T11:05:16.200Z,1007.58
2018-06-10T11:06:25.892Z,1007.57
2018-06-10T11:07:35.049Z,1007.57
2018-06-10T11:08:44.719Z,1007.56
2018-06-10T11:09:54.145Z,1007.55
2018-06-10T11:11:03.823Z,1007.61
2018-06-10T11:12:12.989Z,1007.56
2018-06-10T11:13:22.446Z,1007.54
2018-06-10T11:14:32.547Z,1007.58
2018-06-10T11:15:41.466Z,1007.55
2018-06-10T11:16:51.157Z,1007.56
2018-06-10T11:18:00.315Z,1007.56
2018-06-10T11:19:09.477Z,1007.58
2018-06-10T11:20:19.423Z,1007.55
2018-06-10T11:21:29.075Z,1007.53
2018-06-10T11:22:38.560Z,1007.5
2018-06-10T11:23:48.260Z,1007.5
2018-06-10T11:24:58.221Z,1007.5
2018-06-10T11:26:07.654Z,1007.55
2018-06-10T11:27:16.847Z,1007.52
2018-06-10T11:28:26.815Z,1007.51
2018-06-10T11:29:36.476Z,1007.51
2018-06-10T11:30:45.903Z,1007.54
2018-06-10T11:31:55.583Z,1007.56
2018-06-10T11:33:04.748Z,1007.57
2018-06-10T11:34:13.929Z,1007.59
2018-06-10T11:35:23.647Z,1007.57
2018-06-10T11:36:33.312Z,1007.57
2018-06-10T11:37:42.992Z,1007.62
2018-06-10T11:38:52.661Z,1007.55
2018-06-10T11:40:02.070Z,1007.56
2018-06-10T11:41:11.225Z,1007.56
2018-06-10T11:42:20.457Z,1007.55
2018-06-10T11:43:30.263Z,1007.58
2018-06-10T11:44:39.962Z,1007.59
2018-06-10T11:45:49.892Z,1007.61
2018-06-10T11:46:59.828Z,1007.62
2018-06-10T11:48:09.255Z,1007.61
2018-06-10T11:49:18.148Z,1007.58
2018-06-10T11:50:27.817Z,1007.58
2018-06-10T11:51:36.976Z,1007.59
2018-06-10T11:52:46.903Z,1007.58
2018-06-10T11:53:55.892Z,1007.58
2018-06-10T11:55:05.057Z,1007.57
2018-06-10T11:56:14.775Z,1007.56
2018-06-10T11:57:24.186Z,1007.58
2018-06-10T11:58:34.019Z,1007.56
2018-06-10T11:59:42.927Z,1007.57
2018-06-10T12:00:52.354Z,1007.56
2018-06-10T12:02:01.572Z,1007.58
2018-06-10T12:03:11.338Z,1007.56
2018-06-10T12:04:21.019Z,1007.55
2018-06-10T12:05:30.179Z,1007.57
2018-06-10T12:06:39.859Z,1007.56
2018-06-10T12:07:49.293Z,1007.56
2018-06-10T12:08:59.137Z,1007.57
2018-06-10T12:10:08.304Z,1007.58
2018-06-10T12:11:17.976Z,1007.52
2018-06-10T12:12:27.397Z,1007.51
2018-06-10T12:13:37.331Z,1007.47
2018-06-10T12:14:47.426Z,1007.46
2018-06-10T12:15:56.583Z,1007.5
2018-06-10T12:17:05.997Z,1007.47
2018-06-10T12:18:15.801Z,1007.49
2018-06-10T12:19:25.726Z,1007.43
2018-06-10T12:20:35.143Z,1007.47
2018-06-10T12:21:44.044Z,1007.44
2018-06-10T12:22:53.393Z,1007.43
2018-06-10T12:24:03.025Z,1007.4
2018-06-10T12:25:12.803Z,1007.4
2018-06-10T12:26:22.769Z,1007.35
2018-06-10T12:27:32.205Z,1007.38
2018-06-10T12:28:41.364Z,1007.34
2018-06-10T12:29:51.048Z,1007.37
2018-06-10T12:31:00.512Z,1007.36
2018-06-10T12:32:09.982Z,1007.35
2018-06-10T12:33:19.446Z,1007.35
2018-06-10T12:34:29.151Z,1007.32
2018-06-10T12:35:38.556Z,1007.32
2018-06-10T12:36:47.968Z,1007.28
2018-06-10T12:37:57.644Z,1007.3
2018-06-10T12:39:07.061Z,1007.31
2018-06-10T12:40:16.248Z,1007.31
2018-06-10T12:41:25.691Z,1007.29
2018-06-10T12:42:35.379Z,1007.31
2018-06-10T12:43:44.784Z,1007.33
2018-06-10T12:44:54.188Z,1007.3
2018-06-10T12:46:03.352Z,1007.31
2018-06-10T12:47:13.024Z,1007.32
2018-06-10T12:48:22.215Z,1007.29
2018-06-10T12:49:31.450Z,1007.26
2018-06-10T12:50:40.380Z,1007.29
2018-06-10T12:51:49.562Z,1007.27
2018-06-10T12:52:58.468Z,1007.25
2018-06-10T12:54:07.626Z,1007.21
2018-06-10T12:55:17.065Z,1007.22
2018-06-10T12:56:26.503Z,1007.18
2018-06-10T12:57:35.698Z,1007.13
2018-06-10T12:58:45.366Z,1007.14
2018-06-10T12:59:55.117Z,1007.13
2018-06-10T13:01:04.541Z,1007.1
2018-06-10T13:02:14.084Z,1007.11
2018-06-10T13:03:23.904Z,1007.17
2018-06-10T13:04:33.332Z,1007.12
2018-06-10T13:05:43.049Z,1007.17
2018-06-10T13:06:52.463Z,1007.16
2018-06-10T13:08:01.937Z,1007.14
2018-06-10T13:09:11.377Z,1007.11
2018-06-10T13:10:20.541Z,1007.05
2018-06-10T13:11:30.691Z,1007.08
2018-06-10T13:12:39.861Z,1007.1
2018-06-10T13:13:49.050Z,1007.17
2018-06-10T13:14:58.515Z,1007.15
2018-06-10T13:16:07.437Z,1007.12
2018-06-10T13:17:17.141Z,1007.16
2018-06-10T13:18:26.563Z,1007.13
2018-06-10T13:19:36.253Z,1007.09
2018-06-10T13:20:45.679Z,1007.1
2018-06-10T13:21:54.924Z,1007.08
2018-06-10T13:23:03.903Z,1007.06
2018-06-10T13:24:13.331Z,1007.11
2018-06-10T13:25:22.748Z,1007.12
2018-06-10T13:26:31.653Z,1007.14
2018-06-10T13:27:41.135Z,1007.1
2018-06-10T13:28:50.681Z,1007.06
2018-06-10T13:29:59.874Z,1007.04
2018-06-10T13:31:09.042Z,1007.06
2018-06-10T13:32:18.234Z,1007.04
2018-06-10T13:33:27.654Z,1007.02
2018-06-10T13:34:37.325Z,1007.03
2018-06-10T13:35:46.834Z,1007.04
2018-06-10T13:36:56.530Z,1007.07
2018-06-10T13:38:05.178Z,1007.05
2018-06-10T13:39:14.616Z,1007.04
2018-06-10T13:40:23.787Z,1007.05
2018-06-10T13:41:33.313Z,1007.09
2018-06-10T13:42:42.211Z,1007.07
2018-06-10T13:43:51.393Z,1007.04
2018-06-10T13:45:01.329Z,1007.05
2018-06-10T13:46:10.050Z,1007.02
2018-06-10T13:47:19.864Z,1007
2018-06-10T13:48:29.569Z,1007.06
2018-06-10T13:49:38.747Z,1007.05
2018-06-10T13:50:48.171Z,1007.03
2018-06-10T13:51:57.846Z,1007.11
2018-06-10T13:53:07.255Z,1007.04
2018-06-10T13:54:16.421Z,1006.99
2018-06-10T13:55:25.566Z,1007.07
2018-06-10T13:56:35.499Z,1007.08
2018-06-10T13:57:44.665Z,1007.01
2018-06-10T13:58:53.885Z,1007.03
2018-06-10T14:00:03.681Z,1007.02
2018-06-10T14:01:12.907Z,1007.02
2018-06-10T14:02:22.078Z,1007